sensor_id;sensor_type;location;lat;lon;timestamp;temperature;humidity
24144;DHT22;12307;50.828;6.080;2023-05-14T00:00:12;21.40;65.20
24144;DHT22;12307;50.828;6.080;2023-05-14T00:02:38;21.40;65.20
24144;DHT22;12307;50.828;6.080;2023-05-14T00:05:05;21.40;65.20
24144;DHT22;12307;50.828;6.080;2023-05-14T00:07:30;21.40;65.20
24144;DHT22;12307;50.828;6.080;2023-05-14T00:09:56;21.40;65.20
24144;DHT22;12307;50.828;6.080;2023-05-14T00:12:22;21.40;65.20
24144;DHT22;12307;50.828;6.080;2023-05-14T00:14:49;21.40;65.20
24144;DHT22;12307;50.828;6.080;2023-05-14T00:17:15;21.30;65.20
24144;DHT22;12307;50.828;6.080;2023-05-14T00:19:41;21.40;65.30
24144;DHT22;12307;50.828;6.080;2023-05-14T00:22:07;21.40;65.30
24144;DHT22;12307;50.828;6.080;2023-05-14T00:24:33;21.30;65.20
24144;DHT22;12307;50.828;6.080;2023-05-14T00:26:58;21.30;65.20
24144;DHT22;12307;50.828;6.080;2023-05-14T00:29:24;21.30;65.30
24144;DHT22;12307;50.828;6.080;2023-05-14T00:31:51;21.30;65.30
24144;DHT22;12307;50.828;6.080;2023-05-14T00:34:17;21.30;65.40
24144;DHT22;12307;50.828;6.080;2023-05-14T00:36:43;21.30;65.30
24144;DHT22;12307;50.828;6.080;2023-05-14T00:39:09;21.30;65.40
24144;DHT22;12307;50.828;6.080;2023-05-14T00:41:34;21.30;65.40
24144;DHT22;12307;50.828;6.080;2023-05-14T00:44:01;21.30;65.40
24144;DHT22;12307;50.828;6.080;2023-05-14T00:46:27;21.30;65.40
24144;DHT22;12307;50.828;6.080;2023-05-14T00:48:55;21.30;65.40
24144;DHT22;12307;50.828;6.080;2023-05-14T00:51:21;21.30;65.40
24144;DHT22;12307;50.828;6.080;2023-05-14T00:53:47;21.30;65.40
24144;DHT22;12307;50.828;6.080;2023-05-14T00:56:13;21.30;65.40
24144;DHT22;12307;50.828;6.080;2023-05-14T00:58:39;21.30;65.40
24144;DHT22;12307;50.828;6.080;2023-05-14T01:01:05;21.30;65.40
24144;DHT22;12307;50.828;6.080;2023-05-14T01:03:31;21.20;65.40
24144;DHT22;12307;50.828;6.080;2023-05-14T01:06:05;21.30;65.40
24144;DHT22;12307;50.828;6.080;2023-05-14T01:08:42;21.30;65.40
24144;DHT22;12307;50.828;6.080;2023-05-14T01:11:16;21.30;65.40
24144;DHT22;12307;50.828;6.080;2023-05-14T01:13:48;21.30;65.40
24144;DHT22;12307;50.828;6.080;2023-05-14T01:16:18;21.30;65.40
24144;DHT22;12307;50.828;6.080;2023-05-14T01:18:45;21.30;65.40
24144;DHT22;12307;50.828;6.080;2023-05-14T01:21:42;21.20;65.40
24144;DHT22;12307;50.828;6.080;2023-05-14T01:24:08;21.30;65.50
24144;DHT22;12307;50.828;6.080;2023-05-14T01:26:34;21.30;65.50
24144;DHT22;12307;50.828;6.080;2023-05-14T01:29:04;21.20;65.40
24144;DHT22;12307;50.828;6.080;2023-05-14T01:31:35;21.20;65.40
24144;DHT22;12307;50.828;6.080;2023-05-14T01:34:04;21.20;65.50
24144;DHT22;12307;50.828;6.080;2023-05-14T01:36:30;21.20;65.40
24144;DHT22;12307;50.828;6.080;2023-05-14T01:38:59;21.20;65.40
24144;DHT22;12307;50.828;6.080;2023-05-14T01:41:25;21.20;65.40
24144;DHT22;12307;50.828;6.080;2023-05-14T01:43:52;21.20;65.50
24144;DHT22;12307;50.828;6.080;2023-05-14T01:46:17;21.20;66.30
24144;DHT22;12307;50.828;6.080;2023-05-14T01:48:43;21.20;65.40
24144;DHT22;12307;50.828;6.080;2023-05-14T01:51:09;21.20;65.50
24144;DHT22;12307;50.828;6.080;2023-05-14T01:53:35;21.20;65.50
24144;DHT22;12307;50.828;6.080;2023-05-14T01:56:02;21.20;65.50
24144;DHT22;12307;50.828;6.080;2023-05-14T01:58:28;21.20;65.50
24144;DHT22;12307;50.828;6.080;2023-05-14T02:00:53;21.20;65.50
24144;DHT22;12307;50.828;6.080;2023-05-14T02:03:19;21.20;65.50
24144;DHT22;12307;50.828;6.080;2023-05-14T02:05:45;21.20;66.30
24144;DHT22;12307;50.828;6.080;2023-05-14T02:08:10;21.20;65.50
24144;DHT22;12307;50.828;6.080;2023-05-14T02:10:37;21.20;65.50
24144;DHT22;12307;50.828;6.080;2023-05-14T02:13:04;21.20;65.50
24144;DHT22;12307;50.828;6.080;2023-05-14T02:15:30;21.20;65.50
24144;DHT22;12307;50.828;6.080;2023-05-14T02:17:55;21.20;65.50
24144;DHT22;12307;50.828;6.080;2023-05-14T02:20:21;21.10;65.40
24144;DHT22;12307;50.828;6.080;2023-05-14T02:22:47;21.10;65.40
24144;DHT22;12307;50.828;6.080;2023-05-14T02:25:13;21.20;65.40
24144;DHT22;12307;50.828;6.080;2023-05-14T02:27:38;21.10;65.40
24144;DHT22;12307;50.828;6.080;2023-05-14T02:30:07;21.10;65.40
24144;DHT22;12307;50.828;6.080;2023-05-14T02:32:33;21.10;65.40
24144;DHT22;12307;50.828;6.080;2023-05-14T02:34:58;21.10;65.40
24144;DHT22;12307;50.828;6.080;2023-05-14T02:37:24;21.10;65.40
24144;DHT22;12307;50.828;6.080;2023-05-14T02:39:50;21.10;65.40
24144;DHT22;12307;50.828;6.080;2023-05-14T02:42:16;21.10;65.40
24144;DHT22;12307;50.828;6.080;2023-05-14T02:44:41;21.10;65.50
24144;DHT22;12307;50.828;6.080;2023-05-14T02:47:08;21.10;65.50
24144;DHT22;12307;50.828;6.080;2023-05-14T02:49:34;21.10;65.50
24144;DHT22;12307;50.828;6.080;2023-05-14T02:52:00;21.10;65.50
24144;DHT22;12307;50.828;6.080;2023-05-14T02:54:25;21.10;65.50
24144;DHT22;12307;50.828;6.080;2023-05-14T02:56:51;21.10;65.50
24144;DHT22;12307;50.828;6.080;2023-05-14T02:59:17;21.10;65.50
24144;DHT22;12307;50.828;6.080;2023-05-14T03:01:42;21.10;65.50
24144;DHT22;12307;50.828;6.080;2023-05-14T03:04:09;21.10;65.60
24144;DHT22;12307;50.828;6.080;2023-05-14T03:06:35;21.10;65.60
24144;DHT22;12307;50.828;6.080;2023-05-14T03:09:01;21.00;65.50
24144;DHT22;12307;50.828;6.080;2023-05-14T03:11:27;21.00;65.50
24144;DHT22;12307;50.828;6.080;2023-05-14T03:13:52;21.10;65.60
24144;DHT22;12307;50.828;6.080;2023-05-14T03:16:18;21.00;65.50
24144;DHT22;12307;50.828;6.080;2023-05-14T03:18:44;21.00;65.50
24144;DHT22;12307;50.828;6.080;2023-05-14T03:21:11;21.00;65.50
24144;DHT22;12307;50.828;6.080;2023-05-14T03:23:37;21.00;65.50
24144;DHT22;12307;50.828;6.080;2023-05-14T03:26:03;21.00;65.50
24144;DHT22;12307;50.828;6.080;2023-05-14T03:28:29;21.00;65.50
24144;DHT22;12307;50.828;6.080;2023-05-14T03:30:55;21.00;65.50
24144;DHT22;12307;50.828;6.080;2023-05-14T03:33:21;21.00;65.50
24144;DHT22;12307;50.828;6.080;2023-05-14T03:35:47;21.00;65.60
24144;DHT22;12307;50.828;6.080;2023-05-14T03:38:14;21.00;65.50
24144;DHT22;12307;50.828;6.080;2023-05-14T03:40:39;21.00;65.50
24144;DHT22;12307;50.828;6.080;2023-05-14T03:43:05;21.00;65.50
24144;DHT22;12307;50.828;6.080;2023-05-14T03:45:31;21.00;65.60
24144;DHT22;12307;50.828;6.080;2023-05-14T03:47:57;21.00;65.50
24144;DHT22;12307;50.828;6.080;2023-05-14T03:50:23;21.00;65.50
24144;DHT22;12307;50.828;6.080;2023-05-14T03:52:49;21.00;65.50
24144;DHT22;12307;50.828;6.080;2023-05-14T03:55:18;21.00;65.50
24144;DHT22;12307;50.828;6.080;2023-05-14T03:57:43;21.00;65.50
24144;DHT22;12307;50.828;6.080;2023-05-14T04:00:10;21.00;65.50
24144;DHT22;12307;50.828;6.080;2023-05-14T04:02:36;21.00;65.50
24144;DHT22;12307;50.828;6.080;2023-05-14T04:05:02;21.00;65.60
24144;DHT22;12307;50.828;6.080;2023-05-14T04:07:28;21.00;65.50
24144;DHT22;12307;50.828;6.080;2023-05-14T04:09:54;21.00;65.60
24144;DHT22;12307;50.828;6.080;2023-05-14T04:12:21;21.00;65.60
24144;DHT22;12307;50.828;6.080;2023-05-14T04:14:47;21.00;65.60
24144;DHT22;12307;50.828;6.080;2023-05-14T04:17:12;21.00;65.50
24144;DHT22;12307;50.828;6.080;2023-05-14T04:19:38;21.00;65.50
24144;DHT22;12307;50.828;6.080;2023-05-14T04:22:04;21.00;65.50
24144;DHT22;12307;50.828;6.080;2023-05-14T04:24:30;21.00;65.50
24144;DHT22;12307;50.828;6.080;2023-05-14T04:26:56;21.00;65.50
24144;DHT22;12307;50.828;6.080;2023-05-14T04:29:23;21.00;65.50
24144;DHT22;12307;50.828;6.080;2023-05-14T04:31:49;21.00;65.50
24144;DHT22;12307;50.828;6.080;2023-05-14T04:34:14;21.00;65.50
24144;DHT22;12307;50.828;6.080;2023-05-14T04:36:40;21.00;65.50
24144;DHT22;12307;50.828;6.080;2023-05-14T04:39:06;21.00;65.50
24144;DHT22;12307;50.828;6.080;2023-05-14T04:41:33;21.00;65.50
24144;DHT22;12307;50.828;6.080;2023-05-14T04:44:00;21.00;65.50
24144;DHT22;12307;50.828;6.080;2023-05-14T04:46:30;21.00;65.50
24144;DHT22;12307;50.828;6.080;2023-05-14T04:48:55;21.00;65.40
24144;DHT22;12307;50.828;6.080;2023-05-14T04:51:21;21.00;65.40
24144;DHT22;12307;50.828;6.080;2023-05-14T04:53:47;21.00;65.50
24144;DHT22;12307;50.828;6.080;2023-05-14T04:56:12;21.00;65.40
24144;DHT22;12307;50.828;6.080;2023-05-14T04:58:38;21.00;65.40
24144;DHT22;12307;50.828;6.080;2023-05-14T05:01:04;21.00;65.40
24144;DHT22;12307;50.828;6.080;2023-05-14T05:03:31;21.00;65.40
24144;DHT22;12307;50.828;6.080;2023-05-14T05:05:57;21.00;65.30
24144;DHT22;12307;50.828;6.080;2023-05-14T05:08:23;21.00;65.30
24144;DHT22;12307;50.828;6.080;2023-05-14T05:10:48;21.00;65.30
24144;DHT22;12307;50.828;6.080;2023-05-14T05:13:14;21.00;65.30
24144;DHT22;12307;50.828;6.080;2023-05-14T05:15:41;21.00;65.30
24144;DHT22;12307;50.828;6.080;2023-05-14T05:18:07;21.00;65.30
24144;DHT22;12307;50.828;6.080;2023-05-14T05:20:34;21.00;65.30
24144;DHT22;12307;50.828;6.080;2023-05-14T05:23:00;21.00;65.30
24144;DHT22;12307;50.828;6.080;2023-05-14T05:25:26;21.00;65.30
24144;DHT22;12307;50.828;6.080;2023-05-14T05:27:51;21.10;65.30
24144;DHT22;12307;50.828;6.080;2023-05-14T05:30:17;21.10;65.30
24144;DHT22;12307;50.828;6.080;2023-05-14T05:32:43;21.10;65.30
24144;DHT22;12307;50.828;6.080;2023-05-14T05:35:09;21.10;65.30
24144;DHT22;12307;50.828;6.080;2023-05-14T05:37:36;21.10;65.30
24144;DHT22;12307;50.828;6.080;2023-05-14T05:40:02;21.10;65.30
24144;DHT22;12307;50.828;6.080;2023-05-14T05:42:28;21.10;65.30
24144;DHT22;12307;50.828;6.080;2023-05-14T05:44:54;21.10;65.30
24144;DHT22;12307;50.828;6.080;2023-05-14T05:47:20;21.10;65.20
24144;DHT22;12307;50.828;6.080;2023-05-14T05:49:46;21.10;65.20
24144;DHT22;12307;50.828;6.080;2023-05-14T05:52:12;21.10;65.20
24144;DHT22;12307;50.828;6.080;2023-05-14T05:54:39;21.10;65.20
24144;DHT22;12307;50.828;6.080;2023-05-14T05:57:05;21.10;65.20
24144;DHT22;12307;50.828;6.080;2023-05-14T05:59:30;21.10;65.20
24144;DHT22;12307;50.828;6.080;2023-05-14T06:01:56;21.20;65.20
24144;DHT22;12307;50.828;6.080;2023-05-14T06:04:22;21.20;65.20
24144;DHT22;12307;50.828;6.080;2023-05-14T06:06:47;21.20;65.10
24144;DHT22;12307;50.828;6.080;2023-05-14T06:09:13;21.20;65.10
24144;DHT22;12307;50.828;6.080;2023-05-14T06:11:40;21.20;65.10
24144;DHT22;12307;50.828;6.080;2023-05-14T06:14:06;21.20;65.10
24144;DHT22;12307;50.828;6.080;2023-05-14T06:16:31;21.20;65.00
24144;DHT22;12307;50.828;6.080;2023-05-14T06:18:57;21.20;65.00
24144;DHT22;12307;50.828;6.080;2023-05-14T06:21:23;21.30;65.00
24144;DHT22;12307;50.828;6.080;2023-05-14T06:23:49;21.20;65.00
24144;DHT22;12307;50.828;6.080;2023-05-14T06:26:14;21.20;64.90
24144;DHT22;12307;50.828;6.080;2023-05-14T06:28:41;21.30;65.00
24144;DHT22;12307;50.828;6.080;2023-05-14T06:31:07;21.30;64.90
24144;DHT22;12307;50.828;6.080;2023-05-14T06:33:33;21.30;64.80
24144;DHT22;12307;50.828;6.080;2023-05-14T06:35:59;21.40;64.80
24144;DHT22;12307;50.828;6.080;2023-05-14T06:38:25;21.40;64.80
24144;DHT22;12307;50.828;6.080;2023-05-14T06:40:51;21.40;64.70
24144;DHT22;12307;50.828;6.080;2023-05-14T06:43:17;21.40;64.70
24144;DHT22;12307;50.828;6.080;2023-05-14T06:45:47;21.40;64.60
24144;DHT22;12307;50.828;6.080;2023-05-14T06:48:13;21.40;64.50
24144;DHT22;12307;50.828;6.080;2023-05-14T06:50:39;21.50;64.50
24144;DHT22;12307;50.828;6.080;2023-05-14T06:53:04;21.50;64.50
24144;DHT22;12307;50.828;6.080;2023-05-14T06:55:30;21.50;64.50
24144;DHT22;12307;50.828;6.080;2023-05-14T06:57:56;21.50;64.50
24144;DHT22;12307;50.828;6.080;2023-05-14T07:00:22;21.50;64.50
24144;DHT22;12307;50.828;6.080;2023-05-14T07:02:49;21.50;64.50
24144;DHT22;12307;50.828;6.080;2023-05-14T07:05:15;21.50;64.40
24144;DHT22;12307;50.828;6.080;2023-05-14T07:07:40;21.50;64.40
24144;DHT22;12307;50.828;6.080;2023-05-14T07:10:10;21.50;64.40
24144;DHT22;12307;50.828;6.080;2023-05-14T07:12:35;21.50;64.40
24144;DHT22;12307;50.828;6.080;2023-05-14T07:15:01;21.50;64.40
24144;DHT22;12307;50.828;6.080;2023-05-14T07:17:27;21.50;64.40
24144;DHT22;12307;50.828;6.080;2023-05-14T07:19:54;21.60;64.40
24144;DHT22;12307;50.828;6.080;2023-05-14T07:22:20;21.60;64.40
24144;DHT22;12307;50.828;6.080;2023-05-14T07:24:46;21.60;64.40
24144;DHT22;12307;50.828;6.080;2023-05-14T07:27:11;21.60;64.30
24144;DHT22;12307;50.828;6.080;2023-05-14T07:29:37;21.60;64.30
24144;DHT22;12307;50.828;6.080;2023-05-14T07:32:03;21.60;64.30
24144;DHT22;12307;50.828;6.080;2023-05-14T07:34:29;21.60;64.30
24144;DHT22;12307;50.828;6.080;2023-05-14T07:36:56;21.60;64.20
24144;DHT22;12307;50.828;6.080;2023-05-14T07:39:22;21.60;64.20
24144;DHT22;12307;50.828;6.080;2023-05-14T07:41:48;21.70;64.20
24144;DHT22;12307;50.828;6.080;2023-05-14T07:44:14;21.70;64.20
24144;DHT22;12307;50.828;6.080;2023-05-14T07:46:41;21.70;64.10
24144;DHT22;12307;50.828;6.080;2023-05-14T07:49:07;21.70;64.10
24144;DHT22;12307;50.828;6.080;2023-05-14T07:51:33;21.80;64.10
24144;DHT22;12307;50.828;6.080;2023-05-14T07:54:00;21.80;64.00
24144;DHT22;12307;50.828;6.080;2023-05-14T07:56:26;21.80;64.00
24144;DHT22;12307;50.828;6.080;2023-05-14T07:58:51;21.80;63.90
24144;DHT22;12307;50.828;6.080;2023-05-14T08:01:17;21.80;63.90
24144;DHT22;12307;50.828;6.080;2023-05-14T08:03:43;21.80;63.90
24144;DHT22;12307;50.828;6.080;2023-05-14T08:06:08;21.80;63.90
24144;DHT22;12307;50.828;6.080;2023-05-14T08:08:34;21.90;63.90
24144;DHT22;12307;50.828;6.080;2023-05-14T08:11:02;21.90;63.90
24144;DHT22;12307;50.828;6.080;2023-05-14T08:13:27;21.90;63.80
24144;DHT22;12307;50.828;6.080;2023-05-14T08:15:53;22.00;63.80
24144;DHT22;12307;50.828;6.080;2023-05-14T08:18:19;22.00;63.80
24144;DHT22;12307;50.828;6.080;2023-05-14T08:20:45;22.10;63.70
24144;DHT22;12307;50.828;6.080;2023-05-14T08:23:11;22.10;63.60
24144;DHT22;12307;50.828;6.080;2023-05-14T08:25:37;22.10;63.50
24144;DHT22;12307;50.828;6.080;2023-05-14T08:28:04;22.20;63.50
24144;DHT22;12307;50.828;6.080;2023-05-14T08:30:30;22.30;63.30
24144;DHT22;12307;50.828;6.080;2023-05-14T08:32:56;22.40;63.10
24144;DHT22;12307;50.828;6.080;2023-05-14T08:35:22;22.50;63.00
24144;DHT22;12307;50.828;6.080;2023-05-14T08:37:48;22.60;62.80
24144;DHT22;12307;50.828;6.080;2023-05-14T08:40:14;22.70;62.70
24144;DHT22;12307;50.828;6.080;2023-05-14T08:42:40;22.80;62.50
24144;DHT22;12307;50.828;6.080;2023-05-14T08:45:14;23.00;62.90
24144;DHT22;12307;50.828;6.080;2023-05-14T08:47:42;23.10;61.90
24144;DHT22;12307;50.828;6.080;2023-05-14T08:50:09;23.10;61.80
24144;DHT22;12307;50.828;6.080;2023-05-14T08:52:35;23.10;61.80
24144;DHT22;12307;50.828;6.080;2023-05-14T08:55:03;23.10;62.00
24144;DHT22;12307;50.828;6.080;2023-05-14T08:57:31;23.00;61.90
24144;DHT22;12307;50.828;6.080;2023-05-14T08:59:57;23.10;62.00
24144;DHT22;12307;50.828;6.080;2023-05-14T09:02:28;23.10;61.90
24144;DHT22;12307;50.828;6.080;2023-05-14T09:04:56;23.10;61.70
24144;DHT22;12307;50.828;6.080;2023-05-14T09:07:22;23.20;61.70
24144;DHT22;12307;50.828;6.080;2023-05-14T09:09:48;23.20;61.60
24144;DHT22;12307;50.828;6.080;2023-05-14T09:12:14;23.20;61.50
24144;DHT22;12307;50.828;6.080;2023-05-14T09:14:40;23.20;61.50
24144;DHT22;12307;50.828;6.080;2023-05-14T09:17:06;23.10;61.50
24144;DHT22;12307;50.828;6.080;2023-05-14T09:19:34;23.20;61.50
24144;DHT22;12307;50.828;6.080;2023-05-14T09:21:59;23.20;61.30
24144;DHT22;12307;50.828;6.080;2023-05-14T09:24:26;23.30;61.20
24144;DHT22;12307;50.828;6.080;2023-05-14T09:26:56;23.40;61.00
24144;DHT22;12307;50.828;6.080;2023-05-14T09:29:23;23.50;60.80
24144;DHT22;12307;50.828;6.080;2023-05-14T09:31:49;23.50;60.60
24144;DHT22;12307;50.828;6.080;2023-05-14T09:34:23;23.60;60.40
24144;DHT22;12307;50.828;6.080;2023-05-14T09:36:55;23.60;61.10
24144;DHT22;12307;50.828;6.080;2023-05-14T09:39:21;23.80;60.10
24144;DHT22;12307;50.828;6.080;2023-05-14T09:41:48;24.10;59.80
24144;DHT22;12307;50.828;6.080;2023-05-14T09:44:13;24.20;59.40
24144;DHT22;12307;50.828;6.080;2023-05-14T09:46:39;24.30;59.20
24144;DHT22;12307;50.828;6.080;2023-05-14T09:49:05;24.40;59.10
24144;DHT22;12307;50.828;6.080;2023-05-14T09:51:30;24.50;58.90
24144;DHT22;12307;50.828;6.080;2023-05-14T09:53:58;24.70;58.70
24144;DHT22;12307;50.828;6.080;2023-05-14T09:56:24;25.00;58.40
24144;DHT22;12307;50.828;6.080;2023-05-14T09:58:50;25.40;58.10
24144;DHT22;12307;50.828;6.080;2023-05-14T10:01:17;25.80;57.60
24144;DHT22;12307;50.828;6.080;2023-05-14T10:03:44;26.20;57.00
24144;DHT22;12307;50.828;6.080;2023-05-14T10:06:12;26.60;56.50
24144;DHT22;12307;50.828;6.080;2023-05-14T10:08:43;26.90;56.00
24144;DHT22;12307;50.828;6.080;2023-05-14T10:11:12;27.20;55.60
24144;DHT22;12307;50.828;6.080;2023-05-14T10:13:41;27.50;55.10
24144;DHT22;12307;50.828;6.080;2023-05-14T10:16:11;27.60;54.70
24144;DHT22;12307;50.828;6.080;2023-05-14T10:18:44;27.70;54.40
24144;DHT22;12307;50.828;6.080;2023-05-14T10:21:13;27.90;54.00
24144;DHT22;12307;50.828;6.080;2023-05-14T10:23:39;28.10;53.60
24144;DHT22;12307;50.828;6.080;2023-05-14T10:26:06;28.30;53.40
24144;DHT22;12307;50.828;6.080;2023-05-14T10:28:33;28.40;53.00
24144;DHT22;12307;50.828;6.080;2023-05-14T10:30:59;28.60;52.70
24144;DHT22;12307;50.828;6.080;2023-05-14T10:33:26;28.60;52.60
24144;DHT22;12307;50.828;6.080;2023-05-14T10:35:57;28.60;52.40
24144;DHT22;12307;50.828;6.080;2023-05-14T10:38:25;28.60;52.20
24144;DHT22;12307;50.828;6.080;2023-05-14T10:40:54;28.70;52.10
24144;DHT22;12307;50.828;6.080;2023-05-14T10:43:23;28.70;51.90
24144;DHT22;12307;50.828;6.080;2023-05-14T10:45:51;28.90;51.70
24144;DHT22;12307;50.828;6.080;2023-05-14T10:48:17;29.00;51.50
24144;DHT22;12307;50.828;6.080;2023-05-14T10:50:43;29.10;51.40
24144;DHT22;12307;50.828;6.080;2023-05-14T10:53:12;29.10;51.10
24144;DHT22;12307;50.828;6.080;2023-05-14T10:55:38;29.20;51.00
24144;DHT22;12307;50.828;6.080;2023-05-14T10:58:04;29.30;50.90
24144;DHT22;12307;50.828;6.080;2023-05-14T11:00:32;29.30;50.60
24144;DHT22;12307;50.828;6.080;2023-05-14T11:03:02;29.40;50.60
24144;DHT22;12307;50.828;6.080;2023-05-14T11:05:28;29.40;50.40
24144;DHT22;12307;50.828;6.080;2023-05-14T11:07:56;29.40;50.40
24144;DHT22;12307;50.828;6.080;2023-05-14T11:10:22;29.40;50.30
24144;DHT22;12307;50.828;6.080;2023-05-14T11:12:55;29.40;50.40
24144;DHT22;12307;50.828;6.080;2023-05-14T11:15:23;29.40;50.40
24144;DHT22;12307;50.828;6.080;2023-05-14T11:17:52;29.30;50.40
24144;DHT22;12307;50.828;6.080;2023-05-14T11:20:20;29.30;50.40
24144;DHT22;12307;50.828;6.080;2023-05-14T11:22:47;29.20;50.40
24144;DHT22;12307;50.828;6.080;2023-05-14T11:25:14;29.20;50.40
24144;DHT22;12307;50.828;6.080;2023-05-14T11:27:41;29.10;50.50
24144;DHT22;12307;50.828;6.080;2023-05-14T11:30:12;29.00;50.50
24144;DHT22;12307;50.828;6.080;2023-05-14T11:32:38;28.90;50.60
24144;DHT22;12307;50.828;6.080;2023-05-14T11:35:05;28.80;50.70
24144;DHT22;12307;50.828;6.080;2023-05-14T11:37:32;28.70;50.80
24144;DHT22;12307;50.828;6.080;2023-05-14T11:39:59;28.70;51.00
24144;DHT22;12307;50.828;6.080;2023-05-14T11:42:25;28.50;51.10
24144;DHT22;12307;50.828;6.080;2023-05-14T11:44:52;28.40;51.20
24144;DHT22;12307;50.828;6.080;2023-05-14T11:47:19;28.30;51.40
24144;DHT22;12307;50.828;6.080;2023-05-14T11:49:46;28.20;51.70
24144;DHT22;12307;50.828;6.080;2023-05-14T11:52:13;27.90;51.80
24144;DHT22;12307;50.828;6.080;2023-05-14T11:54:41;27.80;52.10
24144;DHT22;12307;50.828;6.080;2023-05-14T11:57:08;27.70;52.30
24144;DHT22;12307;50.828;6.080;2023-05-14T11:59:34;27.60;52.40
24144;DHT22;12307;50.828;6.080;2023-05-14T12:02:00;27.50;52.50
24144;DHT22;12307;50.828;6.080;2023-05-14T12:04:27;27.50;52.70
24144;DHT22;12307;50.828;6.080;2023-05-14T12:06:56;27.40;52.80
24144;DHT22;12307;50.828;6.080;2023-05-14T12:09:22;27.40;52.90
24144;DHT22;12307;50.828;6.080;2023-05-14T12:11:50;27.30;53.10
24144;DHT22;12307;50.828;6.080;2023-05-14T12:14:17;27.30;53.20
24144;DHT22;12307;50.828;6.080;2023-05-14T12:16:43;27.20;53.30
24144;DHT22;12307;50.828;6.080;2023-05-14T12:19:10;27.20;53.50
24144;DHT22;12307;50.828;6.080;2023-05-14T12:21:37;27.10;53.60
24144;DHT22;12307;50.828;6.080;2023-05-14T12:24:03;27.10;53.70
24144;DHT22;12307;50.828;6.080;2023-05-14T12:26:31;27.10;53.80
24144;DHT22;12307;50.828;6.080;2023-05-14T12:29:01;27.10;53.90
24144;DHT22;12307;50.828;6.080;2023-05-14T12:31:27;27.10;54.40
24144;DHT22;12307;50.828;6.080;2023-05-14T12:33:53;27.00;54.10
24144;DHT22;12307;50.828;6.080;2023-05-14T12:36:19;27.00;54.00
24144;DHT22;12307;50.828;6.080;2023-05-14T12:38:45;27.00;54.10
24144;DHT22;12307;50.828;6.080;2023-05-14T12:41:11;26.90;54.10
24144;DHT22;12307;50.828;6.080;2023-05-14T12:43:36;26.80;54.10
24144;DHT22;12307;50.828;6.080;2023-05-14T12:46:03;26.70;54.20
24144;DHT22;12307;50.828;6.080;2023-05-14T12:48:29;26.50;54.20
24144;DHT22;12307;50.828;6.080;2023-05-14T12:50:55;26.40;54.30
24144;DHT22;12307;50.828;6.080;2023-05-14T12:53:20;26.30;54.30
24144;DHT22;12307;50.828;6.080;2023-05-14T12:55:46;26.20;54.40
24144;DHT22;12307;50.828;6.080;2023-05-14T12:58:12;26.10;54.60
24144;DHT22;12307;50.828;6.080;2023-05-14T13:00:38;26.00;54.60
24144;DHT22;12307;50.828;6.080;2023-05-14T13:03:05;25.90;54.80
24144;DHT22;12307;50.828;6.080;2023-05-14T13:05:30;25.70;54.80
24144;DHT22;12307;50.828;6.080;2023-05-14T13:07:58;25.60;55.00
24144;DHT22;12307;50.828;6.080;2023-05-14T13:10:24;25.50;55.10
24144;DHT22;12307;50.828;6.080;2023-05-14T13:12:49;25.40;55.20
24144;DHT22;12307;50.828;6.080;2023-05-14T13:15:17;25.30;55.40
24144;DHT22;12307;50.828;6.080;2023-05-14T13:17:42;25.20;55.50
24144;DHT22;12307;50.828;6.080;2023-05-14T13:20:10;25.10;55.70
24144;DHT22;12307;50.828;6.080;2023-05-14T13:22:36;25.00;55.80
24144;DHT22;12307;50.828;6.080;2023-05-14T13:25:02;24.90;56.00
24144;DHT22;12307;50.828;6.080;2023-05-14T13:27:27;24.90;56.10
24144;DHT22;12307;50.828;6.080;2023-05-14T13:29:54;24.80;56.20
24144;DHT22;12307;50.828;6.080;2023-05-14T13:32:21;24.80;56.30
24144;DHT22;12307;50.828;6.080;2023-05-14T13:34:46;24.70;56.30
24144;DHT22;12307;50.828;6.080;2023-05-14T13:37:13;24.70;56.40
24144;DHT22;12307;50.828;6.080;2023-05-14T13:39:39;24.70;56.50
24144;DHT22;12307;50.828;6.080;2023-05-14T13:42:05;24.60;56.60
24144;DHT22;12307;50.828;6.080;2023-05-14T13:44:31;24.60;57.30
24144;DHT22;12307;50.828;6.080;2023-05-14T13:46:56;24.50;56.70
24144;DHT22;12307;50.828;6.080;2023-05-14T13:49:22;24.50;56.90
24144;DHT22;12307;50.828;6.080;2023-05-14T13:51:48;24.50;56.90
24144;DHT22;12307;50.828;6.080;2023-05-14T13:54:15;24.50;57.00
24144;DHT22;12307;50.828;6.080;2023-05-14T13:56:40;24.40;57.00
24144;DHT22;12307;50.828;6.080;2023-05-14T13:59:06;24.40;57.10
24144;DHT22;12307;50.828;6.080;2023-05-14T14:01:32;24.30;57.10
24144;DHT22;12307;50.828;6.080;2023-05-14T14:03:58;24.30;57.20
24144;DHT22;12307;50.828;6.080;2023-05-14T14:06:25;24.30;57.20
24144;DHT22;12307;50.828;6.080;2023-05-14T14:08:51;24.30;57.30
24144;DHT22;12307;50.828;6.080;2023-05-14T14:11:18;24.30;57.40
24144;DHT22;12307;50.828;6.080;2023-05-14T14:13:44;24.30;57.40
24144;DHT22;12307;50.828;6.080;2023-05-14T14:16:10;24.30;57.50
24144;DHT22;12307;50.828;6.080;2023-05-14T14:18:35;24.20;57.50
24144;DHT22;12307;50.828;6.080;2023-05-14T14:21:01;24.20;57.50
24144;DHT22;12307;50.828;6.080;2023-05-14T14:23:27;24.20;57.60
24144;DHT22;12307;50.828;6.080;2023-05-14T14:25:52;24.20;57.70
24144;DHT22;12307;50.828;6.080;2023-05-14T14:28:19;24.10;57.60
24144;DHT22;12307;50.828;6.080;2023-05-14T14:30:45;24.10;57.70
24144;DHT22;12307;50.828;6.080;2023-05-14T14:33:11;24.00;57.80
24144;DHT22;12307;50.828;6.080;2023-05-14T14:35:36;24.00;57.80
24144;DHT22;12307;50.828;6.080;2023-05-14T14:38:02;24.00;57.90
24144;DHT22;12307;50.828;6.080;2023-05-14T14:40:28;23.90;58.00
24144;DHT22;12307;50.828;6.080;2023-05-14T14:42:54;23.90;58.10
24144;DHT22;12307;50.828;6.080;2023-05-14T14:45:21;23.80;58.10
24144;DHT22;12307;50.828;6.080;2023-05-14T14:47:48;23.80;58.20
24144;DHT22;12307;50.828;6.080;2023-05-14T14:50:14;23.80;58.30
24144;DHT22;12307;50.828;6.080;2023-05-14T14:52:40;23.70;58.30
24144;DHT22;12307;50.828;6.080;2023-05-14T14:55:08;23.70;58.40
24144;DHT22;12307;50.828;6.080;2023-05-14T14:57:34;23.60;58.40
24144;DHT22;12307;50.828;6.080;2023-05-14T15:00:00;23.70;58.50
24144;DHT22;12307;50.828;6.080;2023-05-14T15:02:27;23.60;58.50
24144;DHT22;12307;50.828;6.080;2023-05-14T15:04:52;23.60;58.50
24144;DHT22;12307;50.828;6.080;2023-05-14T15:07:18;23.60;58.50
24144;DHT22;12307;50.828;6.080;2023-05-14T15:09:44;23.60;58.60
24144;DHT22;12307;50.828;6.080;2023-05-14T15:12:10;23.60;58.60
24144;DHT22;12307;50.828;6.080;2023-05-14T15:14:36;23.60;58.70
24144;DHT22;12307;50.828;6.080;2023-05-14T15:17:02;23.60;58.70
24144;DHT22;12307;50.828;6.080;2023-05-14T15:19:29;23.50;58.70
24144;DHT22;12307;50.828;6.080;2023-05-14T15:21:56;23.50;58.80
24144;DHT22;12307;50.828;6.080;2023-05-14T15:24:22;23.50;58.80